createdAt,value
2022-12-14T00:02:54.066Z,-0.38
2022-12-14T00:08:17.915Z,-0.37
2022-12-14T00:13:41.039Z,-0.31
2022-12-14T00:19:05.239Z,-0.29
2022-12-14T00:24:26.991Z,-0.40
2022-12-14T00:29:48.716Z,-0.35
2022-12-14T00:35:12.151Z,-0.29
2022-12-14T00:40:33.919Z,-0.33
2022-12-14T00:45:55.717Z,-0.24
2022-12-14T00:51:18.396Z,-0.32
2022-12-14T00:56:40.137Z,-0.24
2022-12-14T01:02:01.976Z,-0.51
2022-12-14T01:07:23.796Z,-0.26
2022-12-14T01:12:45.643Z,-0.48
2022-12-14T01:18:07.616Z,-0.48
2022-12-14T01:23:29.964Z,-0.33
2022-12-14T01:28:57.176Z,-0.32
2022-12-14T01:34:19.324Z,-0.30
2022-12-14T01:39:41.119Z,-0.37
2022-12-14T01:45:03.902Z,-0.20
2022-12-14T01:50:35.846Z,-0.26
2022-12-14T01:55:57.654Z,-0.21
2022-12-14T02:01:19.493Z,-0.20
2022-12-14T02:06:44.029Z,-0.17
2022-12-14T02:12:12.861Z,-0.46
2022-12-14T02:17:35.053Z,-0.29
2022-12-14T02:23:29.387Z,-0.33
2022-12-14T02:29:23.736Z,-0.27
2022-12-14T02:35:04.120Z,-0.27
2022-12-14T02:40:47.099Z,-0.42
2022-12-14T02:46:29.040Z,-0.29
2022-12-14T02:52:14.061Z,-0.24
2022-12-14T02:57:50.631Z,-0.30
2022-12-14T03:03:12.452Z,-0.27
2022-12-14T03:08:36.072Z,-0.15
2022-12-14T03:14:15.504Z,-0.27
2022-12-14T03:19:54.743Z,-0.06
2022-12-14T03:25:24.549Z,-0.01
2022-12-14T03:31:01.314Z,-0.01
2022-12-14T03:36:33.499Z,-0.22
2022-12-14T03:42:10.099Z,-0.27
2022-12-14T03:48:09.291Z,-0.14
2022-12-14T03:53:33.935Z,-0.24
2022-12-14T03:59:12.069Z,-0.27
2022-12-14T04:04:49.137Z,-0.06
2022-12-14T04:10:38.756Z,-0.35
2022-12-14T04:16:26.385Z,-0.37
2022-12-14T04:21:53.225Z,-0.17
2022-12-14T04:27:24.683Z,-0.23
2022-12-14T04:32:53.971Z,-0.10
2022-12-14T04:38:20.097Z,-0.08
2022-12-14T04:43:48.979Z,-0.01
2022-12-14T04:49:18.344Z,-0.27
2022-12-14T04:54:59.754Z,-0.02
2022-12-14T05:00:21.495Z,-0.11
2022-12-14T05:06:06.246Z,-0.07
2022-12-14T05:17:14.988Z,-0.05
2022-12-14T05:22:38.753Z,-0.08
2022-12-14T05:28:00.502Z,-0.01
2022-12-14T05:33:22.300Z,-0.10
2022-12-14T05:38:44.068Z,-0.14
2022-12-14T05:44:05.964Z,-0.15
2022-12-14T05:49:27.709Z,-0.06
2022-12-14T05:54:49.439Z,0.07
2022-12-14T06:00:11.703Z,-0.08
2022-12-14T06:05:33.627Z,-0.14
2022-12-14T06:11:02.578Z,-0.01
2022-12-14T06:16:25.691Z,-0.19
2022-12-14T06:21:47.519Z,-0.19
2022-12-14T06:27:09.248Z,-0.20
2022-12-14T06:32:31.005Z,-0.29
2022-12-14T06:37:52.757Z,-0.22
2022-12-14T06:43:15.288Z,-0.17
2022-12-14T06:48:37.113Z,0.01
2022-12-14T06:53:58.936Z,-0.12
2022-12-14T06:59:20.968Z,-0.21
2022-12-14T07:04:42.692Z,-0.34
2022-12-14T07:10:05.047Z,-0.28
2022-12-14T07:15:26.830Z,-0.34
2022-12-14T07:20:59.795Z,-0.17
2022-12-14T07:26:27.527Z,-0.25
2022-12-14T07:31:49.940Z,-0.38
2022-12-14T07:37:13.188Z,-0.40
2022-12-14T07:42:34.899Z,-0.05
2022-12-14T07:47:57.072Z,-0.15
2022-12-14T07:53:18.818Z,-0.22
2022-12-14T07:58:41.082Z,0.00
2022-12-14T08:04:09.272Z,-0.06
2022-12-14T08:09:31.420Z,-0.08
2022-12-14T08:14:53.235Z,-0.13
2022-12-14T08:20:15.065Z,-0.04
2022-12-14T08:25:36.820Z,-0.16
2022-12-14T08:31:04.644Z,0.10
2022-12-14T08:36:29.535Z,0.27
2022-12-14T08:41:51.508Z,0.33
2022-12-14T08:47:13.215Z,0.29
2022-12-14T08:52:34.989Z,0.18
2022-12-14T08:57:56.980Z,0.24
2022-12-14T09:03:18.860Z,0.26
2022-12-14T09:08:41.152Z,0.33
2022-12-14T09:14:03.022Z,0.40
2022-12-14T09:19:24.829Z,0.31
2022-12-14T09:24:46.613Z,0.47
2022-12-14T09:30:08.879Z,0.43
2022-12-14T09:35:30.570Z,0.39
2022-12-14T09:40:57.384Z,0.30
2022-12-14T09:46:44.157Z,0.34
2022-12-14T09:52:10.283Z,0.32
2022-12-14T09:57:39.130Z,0.34
2022-12-14T10:03:58.104Z,0.27
2022-12-14T10:09:32.653Z,0.22
2022-12-14T10:15:01.962Z,0.24
2022-12-14T10:20:35.796Z,0.23
2022-12-14T10:26:07.462Z,0.32
2022-12-14T10:31:44.832Z,0.23
2022-12-14T10:37:12.578Z,0.24
2022-12-14T10:42:43.823Z,0.30
2022-12-14T10:48:39.855Z,0.18
2022-12-14T10:54:08.620Z,0.32
2022-12-14T10:59:39.619Z,0.36
2022-12-14T11:05:16.933Z,0.44
2022-12-14T11:10:41.556Z,0.48
2022-12-14T11:16:33.677Z,0.52
2022-12-14T11:22:18.446Z,0.70
2022-12-14T11:27:43.660Z,0.64
2022-12-14T11:33:05.484Z,0.49
2022-12-14T11:38:29.972Z,0.53
2022-12-14T11:44:04.166Z,0.69
2022-12-14T11:49:43.835Z,0.53
2022-12-14T11:55:26.177Z,0.73
2022-12-14T12:00:50.816Z,0.79
2022-12-14T12:06:15.648Z,0.76
2022-12-14T12:11:45.262Z,0.79
2022-12-14T12:17:37.519Z,0.86
2022-12-14T12:23:06.821Z,0.87
2022-12-14T12:28:34.175Z,0.73
2022-12-14T12:34:01.899Z,0.52
2022-12-14T12:39:24.931Z,0.70
2022-12-14T12:45:05.293Z,0.70
2022-12-14T12:50:32.092Z,0.67
2022-12-14T12:56:03.482Z,0.67
2022-12-14T13:01:28.736Z,0.81
2022-12-14T13:06:56.795Z,0.86
2022-12-14T13:12:28.523Z,0.98
2022-12-14T13:18:05.512Z,0.95
2022-12-14T13:23:45.535Z,0.91
2022-12-14T13:29:23.304Z,0.75
2022-12-14T13:35:31.436Z,0.68
2022-12-14T13:41:08.831Z,0.83
2022-12-14T13:46:31.034Z,0.66
2022-12-14T13:51:52.959Z,0.89
2022-12-14T13:57:23.328Z,0.68
2022-12-14T14:02:53.440Z,0.88
2022-12-14T14:08:39.208Z,0.80
2022-12-14T14:14:11.947Z,0.77
2022-12-14T14:19:39.465Z,0.79
2022-12-14T14:25:25.765Z,0.65
2022-12-14T14:30:54.258Z,0.67
2022-12-14T14:36:30.437Z,0.93
2022-12-14T14:41:53.515Z,0.80
2022-12-14T14:47:35.763Z,0.73
2022-12-14T14:53:19.474Z,0.69
2022-12-14T14:58:42.401Z,0.71
2022-12-14T15:04:21.517Z,0.62
2022-12-14T15:09:59.563Z,0.70
2022-12-14T15:15:36.104Z,0.69
2022-12-14T15:21:19.261Z,0.48
2022-12-14T15:26:41.659Z,0.52
2022-12-14T15:32:05.029Z,0.47
2022-12-14T15:37:48.747Z,0.53
2022-12-14T15:43:20.818Z,0.63
2022-12-14T15:48:42.954Z,0.49
2022-12-14T15:54:07.319Z,0.37
2022-12-14T15:59:32.288Z,0.27
2022-12-14T16:04:56.700Z,0.35
2022-12-14T16:10:24.060Z,0.22
2022-12-14T16:15:46.613Z,0.34
2022-12-14T16:21:26.369Z,0.34
2022-12-14T16:26:56.975Z,0.30
2022-12-14T16:32:21.269Z,0.43
2022-12-14T16:37:43.155Z,0.29
2022-12-14T16:43:06.598Z,0.39
2022-12-14T16:48:29.192Z,0.22
2022-12-14T16:54:02.451Z,0.15
2022-12-14T16:59:44.308Z,0.29
2022-12-14T17:05:14.389Z,0.25
2022-12-14T17:10:38.741Z,0.32
2022-12-14T17:16:03.772Z,0.27
2022-12-14T17:21:28.333Z,0.34
2022-12-14T17:26:52.511Z,0.41
2022-12-14T17:32:16.540Z,0.23
2022-12-14T17:37:38.329Z,0.18
2022-12-14T17:43:00.024Z,0.23
2022-12-14T17:48:21.786Z,0.08
2022-12-14T17:53:43.883Z,0.03
2022-12-14T17:59:05.651Z,0.03
2022-12-14T18:04:27.559Z,0.04
2022-12-14T18:09:50.477Z,0.09
2022-12-14T18:15:19.575Z,0.29
2022-12-14T18:20:43.077Z,0.11
2022-12-14T18:26:06.124Z,0.12
2022-12-14T18:31:35.948Z,0.17
2022-12-14T18:36:58.111Z,0.21
2022-12-14T18:42:22.675Z,0.27
2022-12-14T18:47:45.819Z,-0.01
2022-12-14T18:53:11.805Z,0.11
2022-12-14T18:58:33.665Z,-0.03
2022-12-14T19:03:55.596Z,-0.03
2022-12-14T19:09:17.648Z,0.03
2022-12-14T19:14:40.044Z,0.17
2022-12-14T19:20:02.150Z,-0.02
2022-12-14T19:25:24.370Z,0.12
2022-12-14T19:30:46.620Z,0.08
2022-12-14T19:36:09.324Z,-0.02
2022-12-14T19:41:31.196Z,0.15
2022-12-14T19:46:53.092Z,0.16
2022-12-14T19:52:14.894Z,0.00
2022-12-14T19:57:38.377Z,-0.05
2022-12-14T20:03:00.297Z,-0.03
2022-12-14T20:08:23.137Z,0.01
2022-12-14T20:13:44.848Z,0.02
2022-12-14T20:19:07.073Z,-0.14
2022-12-14T20:24:28.976Z,-0.01
2022-12-14T20:29:50.845Z,-0.13
2022-12-14T20:35:16.713Z,-0.06
2022-12-14T20:40:39.480Z,-0.05
2022-12-14T20:46:02.018Z,0.02
2022-12-14T20:51:24.093Z,-0.15
2022-12-14T20:56:49.389Z,-0.06
2022-12-14T21:02:20.531Z,0.02
2022-12-14T21:07:42.469Z,0.04
2022-12-14T21:13:07.576Z,-0.11
2022-12-14T21:18:29.815Z,-0.15
2022-12-14T21:23:51.579Z,-0.20
2022-12-14T21:29:14.317Z,-0.29
2022-12-14T21:34:36.239Z,-0.19
2022-12-14T21:39:57.935Z,-0.11
2022-12-14T21:45:19.716Z,-0.09
2022-12-14T21:50:43.634Z,-0.10
2022-12-14T21:56:24.537Z,-0.26
2022-12-14T22:01:46.363Z,-0.23
2022-12-14T22:07:08.175Z,-0.30
2022-12-14T22:12:29.967Z,-0.29
2022-12-14T22:17:51.767Z,-0.30
2022-12-14T22:23:13.587Z,-0.46
2022-12-14T22:28:35.365Z,-0.42
2022-12-14T22:33:57.533Z,-0.24
2022-12-14T22:39:19.741Z,-0.26
2022-12-14T22:44:41.521Z,-0.20
2022-12-14T22:50:03.540Z,-0.45
2022-12-14T22:55:27.836Z,-0.45
2022-12-14T23:00:50.028Z,-0.50
2022-12-14T23:06:15.534Z,-0.35
2022-12-14T23:11:55.760Z,-0.30
2022-12-14T23:17:36.506Z,-0.42
2022-12-14T23:23:16.674Z,-0.55
2022-12-14T23:28:57.525Z,-0.55
2022-12-14T23:34:38.121Z,-0.27
2022-12-14T23:40:18.268Z,-0.23
2022-12-14T23:45:58.967Z,-0.23
2022-12-14T23:51:39.035Z,-0.08
2022-12-14T23:57:19.346Z,-0.12
